Goodland, KS

8:18 PM MDT on September 29, 2016 (GMT -0600)
Renner-Goodland Municipal | | Change Station

Elev 3655 ft 39.37 °N, 101.69 °W | Updated 25 minutes ago

Clear
Clear
60 °F
Feels Like 60 °F
N
12
Wind Variable Wind from SE

Today
High -- | Low -- °F
--% Chance of Precip.
Yesterday
High -- | Low -- °F
Precip. -- in
Pressure 30.24 in
Visibility 10.0 miles
Clouds Clear
Dew Point 40 °F
Humidity 47%
Rainfall 0.00 in
Snow Depth Not available.
6:41 AM 6:31 PM
Waning Crescent, 1% visible
METAR KGLD 300153Z AUTO 13010KT 10SM CLR 16/04 A3028 RMK AO2 SLP240 T01560044
Pressure 30.24 in
Visibility 10.0 miles
Clouds Clear
Dew Point 40 °F
Humidity 47%
Rainfall 0.00 in
Snow Depth Not available.
6:41 AM 6:31 PM
Waning Crescent, 1% visible
METAR KGLD 300153Z AUTO 13010KT 10SM CLR 16/04 A3028 RMK AO2 SLP240 T01560044

10-Day Weather Forecast

Almanac

Astronomy

Sep. 29, 2016 Rise Set
Actual Time
Civil Twilight
Nautical Twilight
Astronomical Twilight
Moon
Length of Visible Light
Length of Day
Tomorrow will be .
, % of the Moon is Illuminated

Today's Extremes

State Highs State Lows

Community

WunderPhotos

Upload Photos

1,942,637 photos uploaded!

WunderBlog® & News

Nearby

Air Quality

  Air Quality AQ Index Pollutant
Not available.

Snow Depth

Station Depth Elevation

Earthquake Activity

City Distance Mag. Time & Date
Minimum magnitude displayed is 2.5.

Coastal Water Temperatures

Place Temperature

Stations

Nearby Weather Stations

Station Location Temp. Windchill Dew Point Humidity Wind Precip. Elev Updated Type
                   

Watches & Warnings

There are currently no watches in effect.